Time;durP1;ratioP1;P1;durP2;ratioP2;P2;SDS_P1;SDS_P2;PMS_P1;PMS_P2;Temp;Humidity;BMP_temperature;BMP_pressure;BME280_temperature;BME280_humidity;BME280_pressure;Samples;Min_cycle;Max_cycle;Signal;HPM_P1;HPM_P2
2023/01/22 00:03:01;;;;;;;169.10;72.07;;;;;;;;;;6274197;28;20090;-70
2023/01/22 00:06:02;;;;;;;90.68;42.88;;;;;;;;;;6273363;28;20075;-71
2023/01/22 00:09:05;;;;;;;27.42;15.82;;;;;;;;;;6272498;28;20348;-71
2023/01/22 00:12:07;;;;;;;52.53;24.75;;;;;;;;;;6268949;28;20159;-71
2023/01/22 00:15:10;;;;;;;46.63;23.40;;;;;;;;;;6269849;28;20918;-71
2023/01/22 00:18:11;;;;;;;33.35;18.38;;;;;;;;;;6268309;28;20056;-72
2023/01/22 00:21:14;;;;;;;26.83;13.90;;;;;;;;;;6268700;28;20064;-72
2023/01/22 00:24:17;;;;;;;20.52;11.30;;;;;;;;;;6273485;28;20396;-72
2023/01/22 00:27:18;;;;;;;19.10;11.55;;;;;;;;;;6270624;28;20064;-72
2023/01/22 00:30:20;;;;;;;17.55;11.00;;;;;;;;;;6269413;28;20049;-72
2023/01/22 00:33:22;;;;;;;17.95;10.82;;;;;;;;;;6270299;28;20063;-72
2023/01/22 00:36:24;;;;;;;15.73;10.73;;;;;;;;;;6268366;28;20057;-72
2023/01/22 00:39:27;;;;;;;15.65;10.07;;;;;;;;;;6271254;28;20064;-68
2023/01/22 00:42:28;;;;;;;17.42;11.07;;;;;;;;;;6269875;28;20406;-68
2023/01/22 00:45:30;;;;;;;18.00;10.43;;;;;;;;;;6270098;28;20404;-70
2023/01/22 00:48:32;;;;;;;13.85;9.48;;;;;;;;;;6271421;28;20045;-71
2023/01/22 00:51:35;;;;;;;17.02;10.55;;;;;;;;;;6265016;28;20053;-71
2023/01/22 00:54:38;;;;;;;16.70;10.95;;;;;;;;;;6266757;28;20193;-71
2023/01/22 00:57:40;;;;;;;14.93;9.70;;;;;;;;;;6264584;28;20099;-72
2023/01/22 01:00:41;;;;;;;16.13;10.23;;;;;;;;;;6267083;28;20064;-70
2023/01/22 01:03:43;;;;;;;17.02;9.98;;;;;;;;;;6264762;28;20072;-71
2023/01/22 01:06:45;;;;;;;16.48;9.93;;;;;;;;;;6269480;28;20065;-71
2023/01/22 01:09:48;;;;;;;14.18;8.75;;;;;;;;;;6261813;28;20381;-71
2023/01/22 01:12:50;;;;;;;15.00;9.10;;;;;;;;;;6265493;28;20053;-72
2023/01/22 01:15:59;;;;;;;15.43;8.95;;;;;;;;;;6265165;28;20214;-71
2023/01/22 01:19:01;;;;;;;13.10;8.15;;;;;;;;;;6268775;28;20065;-71
2023/01/22 01:22:04;;;;;;;14.88;8.73;;;;;;;;;;6266870;28;20053;-71
2023/01/22 01:25:08;;;;;;;13.68;8.75;;;;;;;;;;6267291;28;20057;-72
2023/01/22 01:28:09;;;;;;;10.55;7.13;;;;;;;;;;6263320;28;20048;-72
2023/01/22 01:31:13;;;;;;;13.07;6.82;;;;;;;;;;6266789;28;20101;-71
2023/01/22 01:34:15;;;;;;;10.13;6.85;;;;;;;;;;6266543;28;20061;-72
2023/01/22 01:37:17;;;;;;;11.95;7.25;;;;;;;;;;6265204;28;20112;-70
2023/01/22 01:40:20;;;;;;;13.27;8.18;;;;;;;;;;6264643;28;20333;-71
2023/01/22 01:43:22;;;;;;;13.10;7.38;;;;;;;;;;6263761;28;20057;-72
2023/01/22 01:46:25;;;;;;;10.50;7.55;;;;;;;;;;6267098;28;20057;-71
2023/01/22 01:49:29;;;;;;;11.68;7.97;;;;;;;;;;6265102;28;20060;-71
2023/01/22 01:52:31;;;;;;;;;;;;;;;;;;6268478;28;20072;-71
2023/01/22 01:55:35;;;;;;;14.45;8.60;;;;;;;;;;6261978;28;19925;-71
2023/01/22 01:58:37;;;;;;;14.70;9.35;;;;;;;;;;6267968;28;20135;-69
2023/01/22 02:01:39;;;;;;;14.35;8.98;;;;;;;;;;6265253;28;20045;-71
2023/01/22 02:04:41;;;;;;;11.82;8.27;;;;;;;;;;6266295;28;20053;-71
2023/01/22 02:07:43;;;;;;;12.20;7.63;;;;;;;;;;6260926;28;20049;-72
2023/01/22 02:10:46;;;;;;;9.50;6.78;;;;;;;;;;6264902;28;20048;-71
2023/01/22 02:13:49;;;;;;;10.48;7.38;;;;;;;;;;6267258;28;20260;-71
2023/01/22 02:17:00;;;;;;;11.17;7.37;;;;;;;;;;6261940;28;20060;-68
2023/01/22 02:20:02;;;;;;;13.80;8.10;;;;;;;;;;6265927;28;20064;-71
2023/01/22 02:23:05;;;;;;;11.73;8.20;;;;;;;;;;6267134;28;20045;-72
2023/01/22 02:26:06;;;;;;;13.48;8.07;;;;;;;;;;6263670;28;20056;-71
2023/01/22 02:29:09;;;;;;;11.00;7.47;;;;;;;;;;6263058;28;20772;-69
2023/01/22 02:32:12;;;;;;;14.07;8.10;;;;;;;;;;6268034;28;20064;-71
2023/01/22 02:35:13;;;;;;;11.23;8.00;;;;;;;;;;6264819;28;20057;-70
2023/01/22 02:38:16;;;;;;;13.10;8.00;;;;;;;;;;6262685;28;20123;-71
2023/01/22 02:41:18;;;;;;;14.35;7.85;;;;;;;;;;6261743;28;20249;-71
2023/01/22 02:44:20;;;;;;;12.27;7.45;;;;;;;;;;6264367;28;20060;-71
2023/01/22 02:47:22;;;;;;;16.13;9.23;;;;;;;;;;6261908;28;20058;-72
2023/01/22 02:50:23;;;;;;;12.88;7.55;;;;;;;;;;6265012;28;20045;-71
2023/01/22 02:53:26;;;;;;;16.98;8.35;;;;;;;;;;6262875;28;20056;-69
2023/01/22 02:56:28;;;;;;;13.07;8.77;;;;;;;;;;6264784;28;20098;-71
2023/01/22 02:59:30;;;;;;;12.65;8.38;;;;;;;;;;6265002;28;20056;-72
2023/01/22 03:02:32;;;;;;;15.88;8.48;;;;;;;;;;6263029;28;20292;-72
2023/01/22 03:05:34;;;;;;;12.73;8.43;;;;;;;;;;6261160;28;20064;-72
2023/01/22 03:08:37;;;;;;;15.82;8.50;;;;;;;;;;6266336;28;20052;-71
2023/01/22 03:11:40;;;;;;;14.57;8.50;;;;;;;;;;6261741;28;20091;-69
2023/01/22 03:21:21;;;;;;;16.60;9.43;;;;;;;;;;6263180;28;20072;-72
2023/01/22 03:24:24;;;;;;;14.57;8.38;;;;;;;;;;6262711;28;20734;-71
2023/01/22 03:27:27;;;;;;;15.98;10.15;;;;;;;;;;6261308;28;20068;-72
2023/01/22 03:30:29;;;;;;;16.60;10.82;;;;;;;;;;6265723;28;20057;-72
2023/01/22 03:33:30;;;;;;;18.48;10.40;;;;;;;;;;6261092;28;20273;-72
2023/01/22 03:36:32;;;;;;;16.75;9.77;;;;;;;;;;6261133;28;20052;-71
2023/01/22 03:39:35;;;;;;;16.15;9.52;;;;;;;;;;6263851;28;20057;-70
2023/01/22 03:42:37;;;;;;;15.32;9.60;;;;;;;;;;6264615;28;20244;-70
2023/01/22 03:45:39;;;;;;;16.42;9.07;;;;;;;;;;6260586;28;20056;-71
2023/01/22 03:48:40;;;;;;;16.83;9.77;;;;;;;;;;6264559;28;20048;-71
2023/01/22 03:51:42;;;;;;;15.32;8.82;;;;;;;;;;6264430;28;20044;-69
2023/01/22 03:54:45;;;;;;;13.38;8.60;;;;;;;;;;6264615;28;20148;-67
2023/01/22 03:57:47;;;;;;;14.25;9.20;;;;;;;;;;6262973;28;20256;-71
2023/01/22 04:00:49;;;;;;;12.57;8.07;;;;;;;;;;6261717;28;20049;-71
2023/01/22 04:03:51;;;;;;;15.82;8.20;;;;;;;;;;6263566;28;20063;-71
2023/01/22 04:06:52;;;;;;;14.43;8.13;;;;;;;;;;6262108;28;20344;-71
2023/01/22 04:09:55;;;;;;;15.40;7.95;;;;;;;;;;6262887;28;20103;-71
2023/01/22 04:12:57;;;;;;;11.00;7.05;;;;;;;;;;6264055;28;20053;-72
2023/01/22 04:15:59;;;;;;;13.88;7.15;;;;;;;;;;6261490;28;20395;-72
2023/01/22 04:19:01;;;;;;;11.50;7.78;;;;;;;;;;6263348;28;20053;-71
2023/01/22 04:22:02;;;;;;;14.73;8.40;;;;;;;;;;6259024;28;20041;-72
2023/01/22 04:25:07;;;;;;;13.20;7.97;;;;;;;;;;6261119;28;20053;-70
2023/01/22 04:28:09;;;;;;;14.77;8.32;;;;;;;;;;6263016;28;20057;-71
2023/01/22 04:31:11;;;;;;;14.32;7.68;;;;;;;;;;6266946;28;20053;-72
2023/01/22 04:34:13;;;;;;;13.63;7.88;;;;;;;;;;6266506;28;20049;-71
2023/01/22 04:37:15;;;;;;;15.88;7.75;;;;;;;;;;6264678;28;20045;-72
2023/01/22 04:40:19;;;;;;;15.25;6.97;;;;;;;;;;6266716;28;20111;-70
2023/01/22 04:43:20;;;;;;;9.95;7.43;;;;;;;;;;6268744;28;20053;-69
2023/01/22 04:46:22;;;;;;;11.45;7.35;;;;;;;;;;6263989;28;20095;-71
2023/01/22 04:49:24;;;;;;;10.65;6.93;;;;;;;;;;6266225;28;20053;-70
2023/01/22 04:52:26;;;;;;;13.30;7.55;;;;;;;;;;6265060;28;20088;-71
2023/01/22 04:55:29;;;;;;;13.65;7.70;;;;;;;;;;6264222;28;20292;-71
2023/01/22 04:58:31;;;;;;;11.23;7.63;;;;;;;;;;6266113;28;20045;-71
2023/01/22 05:01:32;;;;;;;12.05;7.43;;;;;;;;;;6267262;28;20053;-70
2023/01/22 05:04:34;;;;;;;12.25;7.80;;;;;;;;;;6268208;28;20100;-68
2023/01/22 05:07:36;;;;;;;14.93;7.70;;;;;;;;;;6267632;28;20333;-71
2023/01/22 05:10:39;;;;;;;13.02;7.40;;;;;;;;;;6267552;28;20159;-71
2023/01/22 05:13:41;;;;;;;14.73;7.53;;;;;;;;;;6265027;28;20057;-71
2023/01/22 05:16:43;;;;;;;14.52;8.45;;;;;;;;;;6267294;28;20047;-71
2023/01/22 05:19:44;;;;;;;13.27;8.88;;;;;;;;;;6264686;28;20057;-72
2023/01/22 05:22:46;;;;;;;12.20;8.38;;;;;;;;;;6267723;28;20083;-71
2023/01/22 05:25:49;;;;;;;17.08;9.07;;;;;;;;;;6268930;28;20053;-69
2023/01/22 05:28:51;;;;;;;14.00;8.90;;;;;;;;;;6263676;28;20052;-70
2023/01/22 05:31:53;;;;;;;16.00;9.27;;;;;;;;;;6265402;28;20053;-70
2023/01/22 05:34:55;;;;;;;16.77;9.45;;;;;;;;;;6265530;28;20372;-71
2023/01/22 05:37:56;;;;;;;16.48;9.60;;;;;;;;;;6269674;28;20108;-71
2023/01/22 05:40:59;;;;;;;15.80;9.60;;;;;;;;;;6268379;28;20053;-70
2023/01/22 05:44:01;;;;;;;16.75;9.43;;;;;;;;;;6266133;28;20045;-71
2023/01/22 05:47:02;;;;;;;16.15;9.60;;;;;;;;;;6264777;28;21023;-71
2023/01/22 05:50:05;;;;;;;14.80;9.40;;;;;;;;;;6264318;28;20079;-71
2023/01/22 05:53:07;;;;;;;16.27;9.32;;;;;;;;;;6265508;28;20159;-70
2023/01/22 05:56:11;;;;;;;16.10;9.63;;;;;;;;;;6265488;28;20053;-71
2023/01/22 05:59:12;;;;;;;15.63;9.55;;;;;;;;;;6263188;28;20053;-71
2023/01/22 06:02:14;;;;;;;16.27;10.07;;;;;;;;;;6262913;28;20048;-71
2023/01/22 06:05:16;;;;;;;14.38;9.13;;;;;;;;;;6265695;28;20061;-71
2023/01/22 06:08:18;;;;;;;14.27;9.63;;;;;;;;;;6265430;28;20065;-71
2023/01/22 06:11:21;;;;;;;14.15;8.82;;;;;;;;;;6266343;28;20045;-69
2023/01/22 06:14:23;;;;;;;16.35;9.82;;;;;;;;;;6267072;28;20049;-69
2023/01/22 06:17:24;;;;;;;17.77;10.00;;;;;;;;;;6262752;28;20574;-71
2023/01/22 06:20:26;;;;;;;14.20;8.57;;;;;;;;;;6263607;28;20041;-72
2023/01/22 06:23:28;;;;;;;16.23;9.45;;;;;;;;;;6262166;28;20345;-71
2023/01/22 06:26:31;;;;;;;16.02;9.27;;;;;;;;;;6260855;28;20107;-72
2023/01/22 06:29:33;;;;;;;14.07;8.90;;;;;;;;;;6263003;28;20064;-71
2023/01/22 06:32:35;;;;;;;17.88;9.75;;;;;;;;;;6264757;28;20053;-69
2023/01/22 06:35:37;;;;;;;14.65;9.52;;;;;;;;;;6261179;28;20064;-70
2023/01/22 06:38:38;;;;;;;19.17;9.40;;;;;;;;;;6262579;28;20110;-71
2023/01/22 06:41:41;;;;;;;16.75;9.50;;;;;;;;;;6262633;28;20084;-72
2023/01/22 06:44:43;;;;;;;14.13;8.98;;;;;;;;;;6263081;28;20052;-71
2023/01/22 06:47:45;;;;;;;14.55;8.90;;;;;;;;;;6265257;28;20058;-69
2023/01/22 06:50:47;;;;;;;13.80;8.65;;;;;;;;;;6266035;28;20244;-72
2023/01/22 06:53:48;;;;;;;16.05;8.98;;;;;;;;;;6263562;28;20057;-71
2023/01/22 06:56:51;;;;;;;14.55;8.40;;;;;;;;;;6261168;28;20053;-72
2023/01/22 06:59:53;;;;;;;13.57;8.18;;;;;;;;;;6266552;28;20406;-72
2023/01/22 07:02:55;;;;;;;15.02;8.32;;;;;;;;;;6264715;28;20110;-67
2023/01/22 07:05:58;;;;;;;12.07;7.72;;;;;;;;;;6262223;28;20055;-71
2023/01/22 07:09:00;;;;;;;11.85;8.07;;;;;;;;;;6262164;28;20297;-71
2023/01/22 07:12:03;;;;;;;11.85;8.20;;;;;;;;;;6264514;28;20055;-72
2023/01/22 07:15:06;;;;;;;11.18;7.57;;;;;;;;;;6262783;28;20092;-71
2023/01/22 07:18:09;;;;;;;13.00;7.43;;;;;;;;;;6262421;28;20059;-72
2023/01/22 07:21:12;;;;;;;11.88;8.07;;;;;;;;;;6263813;28;20341;-71
2023/01/22 07:24:14;;;;;;;10.93;7.72;;;;;;;;;;6263019;28;20053;-70
2023/01/22 07:27:17;;;;;;;11.32;8.07;;;;;;;;;;6262206;28;20053;-72
2023/01/22 07:30:18;;;;;;;17.40;8.90;;;;;;;;;;6264263;28;20275;-71
2023/01/22 07:33:20;;;;;;;13.32;8.30;;;;;;;;;;6261994;28;20103;-71
2023/01/22 07:36:22;;;;;;;16.58;8.90;;;;;;;;;;6262242;28;20119;-68
2023/01/22 07:39:23;;;;;;;13.55;8.85;;;;;;;;;;6262952;28;20104;-71
2023/01/22 07:42:26;;;;;;;13.43;9.15;;;;;;;;;;6261447;28;20099;-71
2023/01/22 07:45:28;;;;;;;16.33;10.00;;;;;;;;;;6264021;28;20053;-68
2023/01/22 07:48:30;;;;;;;13.95;8.98;;;;;;;;;;6262881;28;20037;-73
2023/01/22 07:51:32;;;;;;;13.82;8.77;;;;;;;;;;6260843;28;20045;-73
2023/01/22 07:54:35;;;;;;;12.88;8.75;;;;;;;;;;6266288;28;20053;-75
2023/01/22 07:57:38;;;;;;;14.60;8.23;;;;;;;;;;6262440;28;20096;-73
2023/01/22 08:00:40;;;;;;;10.75;7.07;;;;;;;;;;6263077;28;20061;-73
2023/01/22 08:03:41;;;;;;;10.73;6.70;;;;;;;;;;6262446;28;20085;-73
2023/01/22 08:06:43;;;;;;;13.20;7.95;;;;;;;;;;6265831;28;20110;-71
2023/01/22 08:09:44;;;;;;;13.73;8.05;;;;;;;;;;6273039;28;20059;-72
2023/01/22 08:12:47;;;;;;;10.32;6.43;;;;;;;;;;6269803;28;20053;-72
2023/01/22 08:15:49;;;;;;;10.23;6.35;;;;;;;;;;6268328;28;20108;-73
2023/01/22 08:18:51;;;;;;;12.20;6.95;;;;;;;;;;6267541;28;20052;-71
2023/01/22 08:21:53;;;;;;;10.43;6.07;;;;;;;;;;6267291;28;20053;-72
2023/01/22 08:24:54;;;;;;;9.18;6.60;;;;;;;;;;6264419;28;20099;-71
2023/01/22 08:28:01;;;;;;;11.43;6.80;;;;;;;;;;6268465;28;20064;-71
2023/01/22 08:31:03;;;;;;;13.32;7.05;;;;;;;;;;6269190;28;20079;-71
2023/01/22 08:34:05;;;;;;;13.60;7.30;;;;;;;;;;6269112;28;20052;-71
2023/01/22 08:37:07;;;;;;;11.27;6.78;;;;;;;;;;6265598;28;20045;-70
2023/01/22 08:40:10;;;;;;;12.48;7.28;;;;;;;;;;6265233;28;20117;-71
2023/01/22 08:43:13;;;;;;;12.23;8.10;;;;;;;;;;6266762;28;20123;-70
2023/01/22 08:46:15;;;;;;;14.75;8.35;;;;;;;;;;6264959;28;20057;-72
2023/01/22 08:49:17;;;;;;;13.63;8.30;;;;;;;;;;6268143;28;20080;-70
2023/01/22 08:52:18;;;;;;;13.52;8.05;;;;;;;;;;6266142;28;20130;-72
2023/01/22 08:55:20;;;;;;;11.20;7.68;;;;;;;;;;6263473;28;20045;-72
2023/01/22 08:58:24;;;;;;;14.40;9.10;;;;;;;;;;6266285;28;20061;-71
2023/01/22 09:01:25;;;;;;;14.75;9.18;;;;;;;;;;6266765;28;20126;-71
2023/01/22 09:04:27;;;;;;;12.50;7.15;;;;;;;;;;6265912;28;20053;-72
2023/01/22 09:07:29;;;;;;;13.02;7.32;;;;;;;;;;6264728;28;20048;-71
2023/01/22 09:10:30;;;;;;;9.93;6.60;;;;;;;;;;6266538;28;20052;-74
2023/01/22 09:13:34;;;;;;;10.73;6.88;;;;;;;;;;6266394;28;20057;-75
2023/01/22 09:16:35;;;;;;;9.70;6.60;;;;;;;;;;6265154;28;20057;-72
2023/01/22 09:19:37;;;;;;;9.73;6.97;;;;;;;;;;6266616;28;20053;-73
2023/01/22 09:22:39;;;;;;;10.63;7.35;;;;;;;;;;6264375;28;20072;-73
2023/01/22 09:25:40;;;;;;;11.40;7.20;;;;;;;;;;6268378;28;20398;-73
2023/01/22 09:28:43;;;;;;;10.73;7.22;;;;;;;;;;6267125;28;20056;-72
2023/01/22 09:31:45;;;;;;;11.93;7.72;;;;;;;;;;6264053;28;20069;-72
2023/01/22 09:34:47;;;;;;;11.52;7.80;;;;;;;;;;6266367;28;20041;-71
2023/01/22 09:37:49;;;;;;;12.15;6.93;;;;;;;;;;6266331;28;20116;-74
2023/01/22 09:40:53;;;;;;;13.65;7.25;;;;;;;;;;6264828;28;20211;-73
2023/01/22 09:43:59;;;;;;;10.85;7.40;;;;;;;;;;6264294;28;20049;-72
2023/01/22 09:47:04;;;;;;;11.13;7.63;;;;;;;;;;6265235;28;20057;-73
2023/01/22 09:50:12;;;;;;;11.48;8.15;;;;;;;;;;6266251;28;20116;-71
2023/01/22 09:53:16;;;;;;;13.15;8.70;;;;;;;;;;6269666;28;20257;-73
2023/01/22 09:56:21;;;;;;;15.43;9.02;;;;;;;;;;6267324;28;20037;-73
2023/01/22 09:59:26;;;;;;;12.77;8.40;;;;;;;;;;6265119;28;20061;-72
2023/01/22 10:02:30;;;;;;;15.52;9.85;;;;;;;;;;6262816;28;20057;-73
2023/01/22 10:05:35;;;;;;;15.35;10.02;;;;;;;;;;6265298;28;20046;-73
2023/01/22 10:08:40;;;;;;;14.32;10.00;;;;;;;;;;6267906;28;20112;-72
2023/01/22 10:11:43;;;;;;;14.00;9.80;;;;;;;;;;6266427;28;20045;-69
2023/01/22 10:14:46;;;;;;;14.52;9.88;;;;;;;;;;6266012;28;20114;-69
2023/01/22 10:17:47;;;;;;;17.15;9.68;;;;;;;;;;6265717;28;20048;-72
2023/01/22 10:20:50;;;;;;;17.15;9.57;;;;;;;;;;6264413;28;20099;-72
2023/01/22 10:23:54;;;;;;;11.13;8.07;;;;;;;;;;6265414;28;20326;-77
2023/01/22 10:26:58;;;;;;;14.30;8.95;;;;;;;;;;6262511;28;20056;-73
2023/01/22 10:30:04;;;;;;;12.50;8.25;;;;;;;;;;6262613;28;20052;-73
2023/01/22 10:33:07;;;;;;;10.85;7.90;;;;;;;;;;6264515;28;20477;-80
2023/01/22 10:36:12;;;;;;;10.45;6.65;;;;;;;;;;6263683;28;20363;-77
2023/01/22 10:39:15;;;;;;;9.05;6.30;;;;;;;;;;6256693;28;20056;-78
2023/01/22 10:42:18;;;;;;;7.95;5.90;;;;;;;;;;6264768;28;20229;-77
2023/01/22 10:45:21;;;;;;;8.82;4.72;;;;;;;;;;6266411;28;20049;-78
2023/01/22 10:48:23;;;;;;;6.20;4.20;;;;;;;;;;6258221;28;20049;-76
2023/01/22 10:51:32;;;;;;;6.75;4.35;;;;;;;;;;6259740;28;20057;-77
2023/01/22 10:54:38;;;;;;;6.25;4.18;;;;;;;;;;6266254;28;20389;-77
2023/01/22 10:57:40;;;;;;;6.32;4.55;;;;;;;;;;6263186;28;20049;-79
2023/01/22 11:00:43;;;;;;;7.82;4.88;;;;;;;;;;6264086;28;20053;-77
2023/01/22 11:03:45;;;;;;;6.05;4.50;;;;;;;;;;6263388;28;20245;-77
2023/01/22 11:06:50;;;;;;;7.18;5.00;;;;;;;;;;6267342;28;20053;-76
2023/01/22 11:09:55;;;;;;;6.32;4.90;;;;;;;;;;6262249;28;20095;-78
2023/01/22 11:12:59;;;;;;;5.50;4.38;;;;;;;;;;6262238;28;20150;-76
2023/01/22 11:16:12;;;;;;;7.22;4.82;;;;;;;;;;6264156;28;20285;-76
2023/01/22 11:19:15;;;;;;;12.93;5.57;;;;;;;;;;6264112;28;20052;-76
2023/01/22 11:22:23;;;;;;;6.70;4.97;;;;;;;;;;6263231;28;20371;-77
2023/01/22 11:25:26;;;;;;;7.75;5.47;;;;;;;;;;6259837;28;20048;-77
2023/01/22 11:28:40;;;;;;;8.23;4.93;;;;;;;;;;6257695;28;20057;-73
2023/01/22 11:31:53;;;;;;;8.43;5.70;;;;;;;;;;6261130;28;20366;-76
2023/01/22 11:34:59;;;;;;;9.05;5.30;;;;;;;;;;6262822;28;20340;-75
2023/01/22 11:38:15;;;;;;;8.10;5.38;;;;;;;;;;6261772;28;20264;-77
2023/01/22 11:41:42;;;;;;;9.95;5.00;;;;;;;;;;6261064;28;20341;-74
2023/01/22 11:44:55;;;;;;;7.43;5.22;;;;;;;;;;6262457;28;20053;-76
2023/01/22 11:48:19;;;;;;;8.43;5.07;;;;;;;;;;6262575;28;20056;-76
2023/01/22 11:51:26;;;;;;;9.40;4.82;;;;;;;;;;6263416;28;20352;-77
2023/01/22 11:54:39;;;;;;;7.93;5.20;;;;;;;;;;6264180;28;20053;-78
2023/01/22 11:57:43;;;;;;;10.38;5.43;;;;;;;;;;6263933;28;20079;-67
2023/01/22 12:00:51;;;;;;;7.30;4.78;;;;;;;;;;6262605;28;20577;-75
2023/01/22 12:04:07;;;;;;;7.50;5.38;;;;;;;;;;6260666;28;20057;-73
2023/01/22 12:07:21;;;;;;;8.18;5.70;;;;;;;;;;6263184;28;20060;-77
2023/01/22 12:10:40;;;;;;;8.38;6.05;;;;;;;;;;6264324;28;20102;-79
2023/01/22 12:13:51;;;;;;;9.70;6.15;;;;;;;;;;6262581;28;20182;-76
2023/01/22 12:16:58;;;;;;;9.32;6.15;;;;;;;;;;6266246;28;20048;-81
2023/01/22 12:20:31;;;;;;;8.88;5.80;;;;;;;;;;6262687;28;20056;-77
2023/01/22 12:23:36;;;;;;;11.10;6.90;;;;;;;;;;6262255;28;20061;-78
2023/01/22 12:26:41;;;;;;;9.55;6.78;;;;;;;;;;6264965;28;20057;-76
2023/01/22 12:29:45;;;;;;;10.35;6.88;;;;;;;;;;6258747;28;20053;-76
2023/01/22 12:32:51;;;;;;;10.07;6.32;;;;;;;;;;6268107;28;20048;-77
2023/01/22 12:35:57;;;;;;;10.57;6.25;;;;;;;;;;6262107;28;20053;-79
2023/01/22 12:39:00;;;;;;;7.35;5.18;;;;;;;;;;6270202;28;20049;-78
2023/01/22 12:42:12;;;;;;;8.82;5.97;;;;;;;;;;6267149;28;20110;-75
2023/01/22 12:45:19;;;;;;;10.52;5.93;;;;;;;;;;6266135;28;20053;-74
2023/01/22 12:48:28;;;;;;;8.10;5.68;;;;;;;;;;6266865;28;20053;-74
2023/01/22 12:51:40;;;;;;;8.10;5.68;;;;;;;;;;6268148;28;20349;-79
2023/01/22 12:54:42;;;;;;;10.70;6.60;;;;;;;;;;6274019;28;20057;-76
2023/01/22 12:57:43;;;;;;;8.57;6.50;;;;;;;;;;6272950;28;20068;-75
2023/01/22 13:00:45;;;;;;;9.50;6.13;;;;;;;;;;6267299;28;20056;-74
2023/01/22 13:03:57;;;;;;;9.63;5.88;;;;;;;;;;6270973;28;20347;-74
2023/01/22 13:07:22;;;;;;;8.15;5.38;;;;;;;;;;6271303;28;20045;-74
2023/01/22 13:10:28;;;;;;;9.30;6.20;;;;;;;;;;6270373;28;20040;-76
2023/01/22 13:13:32;;;;;;;8.02;5.68;;;;;;;;;;6268635;28;20054;-77
2023/01/22 13:16:36;;;;;;;8.98;5.20;;;;;;;;;;6272369;28;20355;-71
2023/01/22 13:19:40;;;;;;;6.83;5.33;;;;;;;;;;6267235;28;20064;-73
2023/01/22 13:22:44;;;;;;;7.82;5.20;;;;;;;;;;6270889;28;20115;-71
2023/01/22 13:25:46;;;;;;;7.85;5.07;;;;;;;;;;6269097;28;20053;-78
2023/01/22 13:28:50;;;;;;;12.77;6.60;;;;;;;;;;6268113;28;20068;-77
2023/01/22 13:31:53;;;;;;;10.68;5.60;;;;;;;;;;6270643;28;20080;-74
2023/01/22 13:35:02;;;;;;;7.10;5.17;;;;;;;;;;6271836;28;20048;-73
2023/01/22 13:38:05;;;;;;;9.90;6.20;;;;;;;;;;6269282;28;20063;-73
2023/01/22 13:41:09;;;;;;;8.07;5.55;;;;;;;;;;6266243;28;20045;-77
2023/01/22 13:44:17;;;;;;;8.43;6.00;;;;;;;;;;6273274;28;20276;-73
2023/01/22 13:47:27;;;;;;;13.88;7.45;;;;;;;;;;6271735;28;20068;-77
2023/01/22 13:50:30;;;;;;;10.80;6.82;;;;;;;;;;6262801;28;20108;-76
2023/01/22 13:53:37;;;;;;;8.77;5.43;;;;;;;;;;6266373;28;20095;-76
2023/01/22 13:56:38;;;;;;;7.10;5.18;;;;;;;;;;6267585;28;20226;-74
2023/01/22 13:59:40;;;;;;;8.95;4.90;;;;;;;;;;6266921;28;20044;-75
2023/01/22 14:02:44;;;;;;;7.45;4.88;;;;;;;;;;6266375;28;20070;-76
2023/01/22 14:05:46;;;;;;;7.95;5.45;;;;;;;;;;6264961;28;20049;-76
2023/01/22 14:08:50;;;;;;;7.80;5.00;;;;;;;;;;6266489;28;20150;-77
2023/01/22 14:11:52;;;;;;;7.13;4.60;;;;;;;;;;6265328;28;20249;-76
2023/01/22 14:14:54;;;;;;;9.73;5.13;;;;;;;;;;6262696;28;20064;-72
2023/01/22 14:18:07;;;;;;;7.22;5.15;;;;;;;;;;6265529;28;20116;-74
2023/01/22 14:21:08;;;;;;;5.75;4.47;;;;;;;;;;6264277;28;20114;-76
2023/01/22 14:24:11;;;;;;;5.72;4.22;;;;;;;;;;6266757;28;20050;-73
2023/01/22 14:27:13;;;;;;;6.78;4.90;;;;;;;;;;6263965;28;20276;-70
2023/01/22 14:30:17;;;;;;;6.97;4.68;;;;;;;;;;6261800;28;20060;-78
2023/01/22 14:33:20;;;;;;;5.65;4.85;;;;;;;;;;6266565;28;20053;-73
2023/01/22 14:36:22;;;;;;;9.00;5.50;;;;;;;;;;6263880;28;20316;-77
2023/01/22 14:39:25;;;;;;;5.95;4.85;;;;;;;;;;6263006;28;20041;-77
2023/01/22 14:42:27;;;;;;;7.65;5.22;;;;;;;;;;6263440;28;20115;-77
2023/01/22 14:45:29;;;;;;;7.88;5.25;;;;;;;;;;6264295;28;20056;-76
2023/01/22 14:48:30;;;;;;;7.03;5.22;;;;;;;;;;6264247;28;20053;-72
2023/01/22 14:51:32;;;;;;;8.73;5.55;;;;;;;;;;6265651;28;20415;-74
2023/01/22 14:54:35;;;;;;;8.45;5.60;;;;;;;;;;6266689;28;20045;-77
2023/01/22 14:57:37;;;;;;;18.63;10.50;;;;;;;;;;6268912;28;20340;-77
2023/01/22 15:00:39;;;;;;;21.17;11.48;;;;;;;;;;6263490;28;20292;-77
2023/01/22 15:03:41;;;;;;;11.27;6.65;;;;;;;;;;6266659;28;20092;-79
2023/01/22 15:06:42;;;;;;;84.15;36.88;;;;;;;;;;6269031;28;20106;-79
2023/01/22 15:09:45;;;;;;;75.63;35.33;;;;;;;;;;6265454;28;20053;-75
2023/01/22 15:12:48;;;;;;;20.50;12.90;;;;;;;;;;6263798;28;20056;-76
2023/01/22 15:15:49;;;;;;;8.35;5.50;;;;;;;;;;6261250;28;20119;-80
2023/01/22 15:18:54;;;;;;;8.73;5.70;;;;;;;;;;6262562;28;20061;-75
2023/01/22 15:21:56;;;;;;;8.68;6.07;;;;;;;;;;6263058;28;20277;-76
2023/01/22 15:24:59;;;;;;;7.68;5.95;;;;;;;;;;6263181;28;20341;-78
2023/01/22 15:28:01;;;;;;;8.00;5.40;;;;;;;;;;6259863;28;21343;-79
2023/01/22 15:31:06;;;;;;;10.68;6.53;;;;;;;;;;6260514;28;20057;-77
2023/01/22 15:34:08;;;;;;;8.23;6.20;;;;;;;;;;6264262;28;20053;-75
2023/01/22 15:37:12;;;;;;;9.32;6.05;;;;;;;;;;6263458;28;20084;-78
2023/01/22 15:40:16;;;;;;;9.80;5.68;;;;;;;;;;6259379;28;20053;-77
2023/01/22 15:43:17;;;;;;;12.02;6.10;;;;;;;;;;6260719;28;20053;-73
2023/01/22 15:46:20;;;;;;;7.93;5.82;;;;;;;;;;6263472;28;20107;-77
2023/01/22 15:49:21;;;;;;;6.95;5.10;;;;;;;;;;6260659;28;20107;-79
2023/01/22 15:52:23;;;;;;;9.00;5.63;;;;;;;;;;6261418;28;20048;-78
2023/01/22 15:55:27;;;;;;;7.97;5.82;;;;;;;;;;6259643;28;20057;-78
2023/01/22 15:58:28;;;;;;;7.95;5.25;;;;;;;;;;6261914;28;20084;-77
2023/01/22 16:01:30;;;;;;;8.43;5.35;;;;;;;;;;6260088;28;20057;-77
2023/01/22 16:04:32;;;;;;;10.13;5.60;;;;;;;;;;6263778;28;20107;-79
2023/01/22 16:07:34;;;;;;;10.63;6.38;;;;;;;;;;6261731;28;20056;-80
2023/01/22 16:10:37;;;;;;;10.55;5.82;;;;;;;;;;6262945;28;20050;-80
2023/01/22 16:13:39;;;;;;;10.48;5.65;;;;;;;;;;6259762;28;20059;-74
2023/01/22 16:16:41;;;;;;;10.75;5.85;;;;;;;;;;6261925;28;20103;-81
2023/01/22 16:19:43;;;;;;;9.38;5.25;;;;;;;;;;6263752;28;20057;-81
2023/01/22 16:22:45;;;;;;;12.93;5.65;;;;;;;;;;6260324;28;20040;-76
2023/01/22 16:25:48;;;;;;;8.88;5.43;;;;;;;;;;6261720;28;20196;-80
2023/01/22 16:28:51;;;;;;;7.15;5.15;;;;;;;;;;6265990;28;20415;-81
2023/01/22 16:31:53;;;;;;;7.80;5.07;;;;;;;;;;6266656;28;20726;-82
2023/01/22 16:34:55;;;;;;;8.68;5.30;;;;;;;;;;6267453;28;20053;-81
2023/01/22 16:37:56;;;;;;;8.65;4.97;;;;;;;;;;6266927;28;20261;-76
2023/01/22 16:41:07;;;;;;;8.32;5.18;;;;;;;;;;6266103;28;20121;-81
2023/01/22 16:44:11;;;;;;;7.13;4.63;;;;;;;;;;6267274;28;20398;-81
2023/01/22 16:47:12;;;;;;;8.65;5.07;;;;;;;;;;6267874;28;20048;-79
2023/01/22 16:50:14;;;;;;;8.18;4.80;;;;;;;;;;6268214;28;20056;-81
2023/01/22 16:53:16;;;;;;;7.18;4.85;;;;;;;;;;6266779;28;20053;-80
2023/01/22 16:56:19;;;;;;;10.15;5.35;;;;;;;;;;6268841;28;20045;-80
2023/01/22 16:59:21;;;;;;;8.55;5.35;;;;;;;;;;6263988;28;20042;-77
2023/01/22 17:02:23;;;;;;;11.55;5.40;;;;;;;;;;6267728;28;20056;-80
2023/01/22 17:05:24;;;;;;;8.45;5.10;;;;;;;;;;6264383;28;20060;-82
2023/01/22 17:08:27;;;;;;;8.75;5.20;;;;;;;;;;6267008;28;20053;-80
2023/01/22 17:11:30;;;;;;;8.32;5.38;;;;;;;;;;6270410;28;20057;-80
2023/01/22 17:14:35;;;;;;;11.32;5.38;;;;;;;;;;6262934;28;20050;-79
2023/01/22 17:17:36;;;;;;;11.70;5.53;;;;;;;;;;6265734;28;20107;-76
2023/01/22 17:20:38;;;;;;;7.93;5.30;;;;;;;;;;6261917;28;20048;-74
2023/01/22 17:23:40;;;;;;;8.88;5.85;;;;;;;;;;6271447;28;20107;-80
2023/01/22 17:26:43;;;;;;;7.65;5.28;;;;;;;;;;6268206;28;20057;-79
2023/01/22 17:29:44;;;;;;;7.30;5.45;;;;;;;;;;6266128;28;20064;-77
2023/01/22 17:32:46;;;;;;;7.93;4.85;;;;;;;;;;6261637;28;20304;-77
2023/01/22 17:35:48;;;;;;;8.95;5.22;;;;;;;;;;6263875;28;20053;-78
2023/01/22 17:38:50;;;;;;;7.78;4.65;;;;;;;;;;6269914;28;20048;-77
2023/01/22 17:41:53;;;;;;;7.88;5.22;;;;;;;;;;6263283;28;20061;-77
2023/01/22 17:44:54;;;;;;;7.35;4.72;;;;;;;;;;6262288;28;20060;-76
2023/01/22 17:47:56;;;;;;;11.93;5.18;;;;;;;;;;6259734;28;20060;-76
2023/01/22 17:51:01;;;;;;;9.70;5.53;;;;;;;;;;6262469;28;20422;-75
2023/01/22 17:54:04;;;;;;;8.70;5.40;;;;;;;;;;6263526;28;20052;-74
2023/01/22 17:57:08;;;;;;;8.38;4.60;;;;;;;;;;6263912;28;20048;-75
2023/01/22 18:00:11;;;;;;;8.68;5.00;;;;;;;;;;6264513;28;20060;-76
2023/01/22 18:03:14;;;;;;;9.55;5.28;;;;;;;;;;6262014;28;20334;-73
2023/01/22 18:06:17;;;;;;;9.32;5.65;;;;;;;;;;6266017;28;20053;-73
2023/01/22 18:09:19;;;;;;;8.30;4.97;;;;;;;;;;6264600;28;20064;-73
2023/01/22 18:12:22;;;;;;;8.95;5.65;;;;;;;;;;6263648;28;20292;-75
2023/01/22 18:15:24;;;;;;;10.60;5.50;;;;;;;;;;6264153;28;20276;-75